Time;durP1;ratioP1;P1;durP2;ratioP2;P2;SDS_P1;SDS_P2;PMS_P1;PMS_P2;Temp;Humidity;BMP_temperature;BMP_pressure;BME280_temperature;BME280_humidity;BME280_pressure;Samples;Min_cycle;Max_cycle;Signal;HPM_P1;HPM_P2
2022/04/04 00:02:14;;;;;;;4.45;4.05;;;;;;;;;;5074051;28;20056;-61
2022/04/04 00:04:40;;;;;;;4.78;4.38;;;;;;;;;;5074424;28;20036;-61
2022/04/04 00:07:06;;;;;;;4.65;4.25;;;;;;;;;;5076479;28;20039;-61
2022/04/04 00:09:31;;;;;;;6.05;5.55;;;;;;;;;;5075037;28;20048;-58
2022/04/04 00:11:57;;;;;;;5.60;4.68;;;;;;;;;;5077715;28;20089;-52
2022/04/04 00:14:22;;;;;;;4.80;4.40;;;;;;;;;;5079344;28;20417;-53
2022/04/04 00:16:47;;;;;;;4.05;3.67;;;;;;;;;;5072445;28;20064;-52
2022/04/04 00:19:14;;;;;;;5.28;4.80;;;;;;;;;;5076917;28;20028;-59
2022/04/04 00:21:40;;;;;;;4.93;4.53;;;;;;;;;;5075650;28;20016;-60
2022/04/04 00:24:05;;;;;;;4.90;4.50;;;;;;;;;;5071018;28;20334;-61
2022/04/04 00:26:31;;;;;;;4.75;4.25;;;;;;;;;;5072761;28;20047;-62
2022/04/04 00:28:56;;;;;;;9.10;4.75;;;;;;;;;;5077500;28;20044;-62
2022/04/04 00:31:21;;;;;;;4.60;4.20;;;;;;;;;;5075672;28;20085;-51
2022/04/04 00:33:47;;;;;;;4.28;3.83;;;;;;;;;;5074693;28;20128;-51
2022/04/04 00:36:13;;;;;;;4.80;4.40;;;;;;;;;;5077380;28;20042;-54
2022/04/04 00:38:39;;;;;;;4.20;3.80;;;;;;;;;;5075026;28;20071;-54
2022/04/04 00:41:13;;;;;;;4.28;3.92;;;;;;;;;;5074363;28;20060;-62
2022/04/04 00:43:39;;;;;;;4.53;4.13;;;;;;;;;;5073700;28;20036;-62
2022/04/04 00:46:05;;;;;;;4.43;4.03;;;;;;;;;;5077540;28;20039;-52
2022/04/04 00:48:31;;;;;;;5.03;4.55;;;;;;;;;;5076819;28;20031;-51
2022/04/04 00:50:56;;;;;;;4.63;4.22;;;;;;;;;;5075926;28;20572;-50
2022/04/04 00:53:22;;;;;;;4.35;3.53;;;;;;;;;;5073912;28;20024;-54
2022/04/04 00:55:48;;;;;;;4.57;4.18;;;;;;;;;;5074489;28;20079;-55
2022/04/04 00:58:14;;;;;;;6.35;4.75;;;;;;;;;;5074996;28;20553;-52
2022/04/04 01:00:41;;;;;;;4.50;4.10;;;;;;;;;;5073375;28;20408;-53
2022/04/04 01:03:06;;;;;;;4.57;4.18;;;;;;;;;;5073938;28;20024;-55
2022/04/04 01:05:32;;;;;;;4.40;4.05;;;;;;;;;;5080326;28;20026;-52
2022/04/04 01:07:58;;;;;;;4.65;4.25;;;;;;;;;;5078653;28;20472;-51
2022/04/04 01:10:23;;;;;;;4.90;4.45;;;;;;;;;;5079893;28;20454;-61
2022/04/04 01:12:51;;;;;;;4.63;4.22;;;;;;;;;;5080435;28;20401;-61
2022/04/04 01:15:16;;;;;;;3.70;3.40;;;;;;;;;;5076211;28;20036;-62
2022/04/04 01:17:42;;;;;;;3.90;3.60;;;;;;;;;;5075072;28;20856;-53
2022/04/04 01:20:08;;;;;;;4.63;4.22;;;;;;;;;;5078013;28;20471;-52
2022/04/04 01:22:33;;;;;;;4.30;3.92;;;;;;;;;;5074198;28;20033;-60
2022/04/04 01:24:59;;;;;;;4.53;4.13;;;;;;;;;;5070718;28;20040;-60
2022/04/04 01:27:24;;;;;;;4.63;4.22;;;;;;;;;;5073369;28;20035;-53
2022/04/04 01:29:50;;;;;;;4.30;3.90;;;;;;;;;;5075937;28;20025;-60
2022/04/04 01:32:15;;;;;;;5.30;4.80;;;;;;;;;;5078690;28;20051;-60
2022/04/04 01:34:40;;;;;;;4.75;3.50;;;;;;;;;;5079898;28;20031;-53
2022/04/04 01:37:06;;;;;;;4.85;3.88;;;;;;;;;;5079570;28;20039;-49
2022/04/04 01:39:31;;;;;;;4.43;4.03;;;;;;;;;;5076943;28;20029;-52
2022/04/04 01:41:57;;;;;;;4.63;4.22;;;;;;;;;;5076559;28;20040;-52
2022/04/04 01:44:22;;;;;;;5.18;4.72;;;;;;;;;;5077744;28;20195;-59
2022/04/04 01:46:47;;;;;;;4.32;3.88;;;;;;;;;;5077073;28;20170;-51
2022/04/04 01:49:13;;;;;;;5.78;5.25;;;;;;;;;;5078873;28;20111;-54
2022/04/04 01:51:39;;;;;;;4.35;3.95;;;;;;;;;;5080130;28;20072;-59
2022/04/04 01:54:05;;;;;;;4.65;4.25;;;;;;;;;;5075959;28;20475;-49
2022/04/04 01:56:31;;;;;;;3.70;3.40;;;;;;;;;;5079369;28;20111;-54
2022/04/04 01:58:56;;;;;;;5.18;4.65;;;;;;;;;;5081245;28;20047;-61
2022/04/04 02:01:24;;;;;;;4.38;3.65;;;;;;;;;;5079338;28;20462;-61
2022/04/04 02:03:55;;;;;;;5.22;3.83;;;;;;;;;;5078943;28;20036;-61
2022/04/04 02:06:20;;;;;;;4.28;3.88;;;;;;;;;;5080349;28;20024;-52
2022/04/04 02:08:47;;;;;;;4.25;3.85;;;;;;;;;;5078013;28;20473;-54
2022/04/04 02:11:13;;;;;;;5.47;4.97;;;;;;;;;;5074203;28;20043;-53
2022/04/04 02:13:40;;;;;;;4.50;4.10;;;;;;;;;;5077478;28;20024;-61
2022/04/04 02:16:06;;;;;;;5.00;4.60;;;;;;;;;;5075421;28;20025;-61
2022/04/04 02:18:33;;;;;;;5.15;4.35;;;;;;;;;;5079410;28;20131;-62
2022/04/04 02:20:59;;;;;;;4.45;4.05;;;;;;;;;;5078426;28;20458;-62
2022/04/04 02:23:25;;;;;;;4.53;4.13;;;;;;;;;;5078120;28;20035;-53
2022/04/04 02:25:52;;;;;;;3.70;3.40;;;;;;;;;;5078814;28;20467;-61
2022/04/04 02:28:18;;;;;;;4.43;4.03;;;;;;;;;;5077320;28;20036;-53
2022/04/04 02:30:45;;;;;;;4.57;4.15;;;;;;;;;;5076391;28;20424;-54
2022/04/04 02:33:15;;;;;;;4.43;4.03;;;;;;;;;;5071203;28;20102;-52
2022/04/04 02:35:41;;;;;;;4.40;4.00;;;;;;;;;;5074224;28;20106;-61
2022/04/04 02:38:07;;;;;;;4.05;3.65;;;;;;;;;;5073617;28;20036;-53
2022/04/04 02:40:33;;;;;;;4.22;3.83;;;;;;;;;;5071873;28;20036;-50
2022/04/04 02:43:00;;;;;;;4.78;3.65;;;;;;;;;;5073444;28;20048;-62
2022/04/04 02:45:26;;;;;;;3.90;3.60;;;;;;;;;;5075258;28;20060;-62
2022/04/04 02:47:52;;;;;;;4.22;3.83;;;;;;;;;;5078136;28;20044;-54
2022/04/04 02:50:17;;;;;;;5.47;4.75;;;;;;;;;;5061534;28;20040;-55
2022/04/04 02:52:43;;;;;;;4.13;3.72;;;;;;;;;;5076114;28;20024;-61
2022/04/04 02:57:55;;;;;;;4.50;4.10;;;;;;;;;;5075406;28;20420;-62
2022/04/04 03:00:23;;;;;;;5.70;4.40;;;;;;;;;;5078524;28;20032;-51
2022/04/04 03:02:50;;;;;;;4.43;4.03;;;;;;;;;;5075882;28;20040;-62
2022/04/04 03:05:15;;;;;;;4.68;4.28;;;;;;;;;;5078584;28;20604;-51
2022/04/04 03:07:42;;;;;;;4.15;3.80;;;;;;;;;;5075878;28;20280;-49
2022/04/04 03:10:08;;;;;;;4.18;3.78;;;;;;;;;;5075280;28;20036;-61
2022/04/04 03:12:42;;;;;;;4.80;4.40;;;;;;;;;;5077266;28;20028;-61
2022/04/04 03:15:11;;;;;;;5.15;4.65;;;;;;;;;;5075760;28;20581;-61
2022/04/04 03:17:41;;;;;;;4.53;4.10;;;;;;;;;;5078469;28;20040;-61
2022/04/04 03:20:09;;;;;;;5.13;4.18;;;;;;;;;;5077864;28;20047;-60
2022/04/04 03:22:39;;;;;;;4.95;4.55;;;;;;;;;;5076197;28;20035;-52
2022/04/04 03:25:05;;;;;;;3.80;3.50;;;;;;;;;;5077935;28;20530;-61
2022/04/04 03:27:31;;;;;;;4.50;4.10;;;;;;;;;;5072605;28;20090;-54
2022/04/04 03:29:57;;;;;;;4.60;4.20;;;;;;;;;;5069493;28;20111;-54
2022/04/04 03:32:22;;;;;;;3.90;3.60;;;;;;;;;;5070733;28;20023;-60
2022/04/04 03:34:48;;;;;;;4.78;4.38;;;;;;;;;;5071596;28;20069;-61
2022/04/04 03:37:13;;;;;;;4.97;4.47;;;;;;;;;;5064963;28;20090;-62
2022/04/04 03:39:39;;;;;;;4.80;4.22;;;;;;;;;;5073582;28;20052;-61
2022/04/04 03:42:05;;;;;;;4.65;4.25;;;;;;;;;;5076288;28;20032;-61
2022/04/04 03:44:30;;;;;;;3.95;3.65;;;;;;;;;;5070015;28;20692;-51
2022/04/04 03:46:56;;;;;;;4.40;4.00;;;;;;;;;;5071529;28;20094;-61
2022/04/04 03:49:21;;;;;;;8.13;4.22;;;;;;;;;;5073360;28;20028;-62
2022/04/04 03:51:46;;;;;;;5.90;4.30;;;;;;;;;;5075435;28;20106;-61
2022/04/04 03:54:12;;;;;;;4.50;4.10;;;;;;;;;;5077994;28;20445;-61
2022/04/04 03:56:38;;;;;;;5.50;3.90;;;;;;;;;;5074203;28;20039;-62
2022/04/04 03:59:04;;;;;;;4.80;4.40;;;;;;;;;;5074083;28;20461;-62
2022/04/04 04:01:30;;;;;;;4.95;4.15;;;;;;;;;;5069789;28;20109;-51
2022/04/04 04:03:56;;;;;;;7.38;4.88;;;;;;;;;;5073541;28;20032;-52
2022/04/04 04:06:21;;;;;;;4.53;4.10;;;;;;;;;;5067400;28;20040;-54
2022/04/04 04:08:47;;;;;;;4.38;3.97;;;;;;;;;;5069751;28;20060;-61
2022/04/04 04:11:14;;;;;;;4.63;4.22;;;;;;;;;;5072366;28;20384;-61
2022/04/04 04:13:44;;;;;;;6.20;4.80;;;;;;;;;;5068557;28;20450;-61
2022/04/04 04:16:10;;;;;;;4.72;4.32;;;;;;;;;;5067746;28;20074;-62
2022/04/04 04:18:36;;;;;;;5.00;4.60;;;;;;;;;;5074965;28;20734;-53
2022/04/04 04:21:02;;;;;;;5.20;4.75;;;;;;;;;;5074677;28;20041;-54
2022/04/04 04:23:28;;;;;;;3.70;3.38;;;;;;;;;;5070286;28;20123;-62
2022/04/04 04:25:53;;;;;;;5.57;4.30;;;;;;;;;;5068629;28;20119;-51
2022/04/04 04:28:19;;;;;;;5.22;4.72;;;;;;;;;;5074336;28;20552;-50
2022/04/04 04:30:45;;;;;;;4.72;4.32;;;;;;;;;;5071474;28;20362;-53
2022/04/04 04:33:10;;;;;;;5.53;5.03;;;;;;;;;;5068303;28;20028;-52
2022/04/04 04:35:36;;;;;;;4.63;4.22;;;;;;;;;;5072386;28;20131;-59
2022/04/04 04:38:02;;;;;;;6.10;4.10;;;;;;;;;;5075919;28;20040;-59
2022/04/04 04:40:28;;;;;;;5.22;4.75;;;;;;;;;;5071660;28;20081;-61
2022/04/04 04:42:54;;;;;;;4.18;3.80;;;;;;;;;;5076958;28;20131;-61
2022/04/04 04:45:20;;;;;;;5.03;4.53;;;;;;;;;;5073230;28;20129;-53
2022/04/04 04:47:46;;;;;;;6.03;4.47;;;;;;;;;;5074537;28;20149;-51
2022/04/04 04:50:14;;;;;;;4.75;4.35;;;;;;;;;;5073925;28;20052;-61
2022/04/04 04:52:41;;;;;;;4.85;4.45;;;;;;;;;;5079183;28;20029;-61
2022/04/04 04:55:07;;;;;;;4.13;3.72;;;;;;;;;;5074502;28;20040;-61
2022/04/04 04:57:33;;;;;;;3.92;3.63;;;;;;;;;;5079065;28;20552;-53
2022/04/04 04:59:59;;;;;;;4.80;4.40;;;;;;;;;;5076174;28;20043;-53
2022/04/04 05:02:25;;;;;;;5.15;4.65;;;;;;;;;;5073490;28;20115;-61
2022/04/04 05:04:50;;;;;;;4.15;3.80;;;;;;;;;;5069935;28;20215;-52
2022/04/04 05:07:16;;;;;;;5.25;4.75;;;;;;;;;;5079884;28;20027;-61
2022/04/04 05:09:41;;;;;;;4.18;3.78;;;;;;;;;;5077371;28;20469;-51
2022/04/04 05:12:07;;;;;;;6.35;4.75;;;;;;;;;;5071508;28;20773;-50
2022/04/04 05:14:33;;;;;;;5.32;4.82;;;;;;;;;;5073607;28;20036;-50
2022/04/04 05:16:58;;;;;;;4.68;4.28;;;;;;;;;;5074181;28;20033;-50
2022/04/04 05:19:24;;;;;;;4.60;3.78;;;;;;;;;;5072730;28;20606;-53
2022/04/04 05:21:51;;;;;;;4.55;4.15;;;;;;;;;;5075649;28;20137;-51
2022/04/04 05:24:16;;;;;;;4.47;4.07;;;;;;;;;;5074764;28;20052;-61
2022/04/04 05:26:41;;;;;;;4.53;4.13;;;;;;;;;;5075242;28;20072;-59
2022/04/04 05:29:07;;;;;;;4.47;4.07;;;;;;;;;;5073657;28;20032;-61
2022/04/04 05:31:34;;;;;;;7.80;5.65;;;;;;;;;;5069964;28;20094;-60
2022/04/04 05:34:01;;;;;;;4.72;4.32;;;;;;;;;;5074307;28;20029;-58
2022/04/04 05:36:28;;;;;;;3.72;3.30;;;;;;;;;;5079120;28;20615;-52
2022/04/04 05:38:56;;;;;;;4.75;4.35;;;;;;;;;;5072351;28;20091;-50
2022/04/04 05:41:22;;;;;;;4.40;4.00;;;;;;;;;;5074228;28;20579;-51
2022/04/04 05:43:47;;;;;;;5.00;4.55;;;;;;;;;;5075133;28;20060;-53
2022/04/04 05:46:15;;;;;;;5.03;4.53;;;;;;;;;;5074657;28;20026;-53
2022/04/04 05:48:40;;;;;;;7.07;4.57;;;;;;;;;;5073730;28;20036;-51
2022/04/04 05:51:05;;;;;;;4.05;3.70;;;;;;;;;;5074425;28;20036;-53
2022/04/04 05:53:31;;;;;;;3.42;3.13;;;;;;;;;;5075092;28;20085;-54
2022/04/04 05:55:56;;;;;;;4.70;3.90;;;;;;;;;;5075327;28;20047;-54
2022/04/04 05:58:22;;;;;;;4.28;3.88;;;;;;;;;;5076008;28;20028;-51
2022/04/04 06:00:48;;;;;;;4.22;3.83;;;;;;;;;;5075424;28;20035;-53
2022/04/04 06:03:14;;;;;;;4.68;4.28;;;;;;;;;;5072751;28;20024;-55
2022/04/04 06:05:40;;;;;;;4.38;3.97;;;;;;;;;;5074244;28;20375;-54
2022/04/04 06:08:05;;;;;;;3.65;3.35;;;;;;;;;;5074114;28;20614;-61
2022/04/04 06:10:30;;;;;;;4.25;3.85;;;;;;;;;;5071445;28;20365;-60
2022/04/04 06:12:56;;;;;;;5.18;3.88;;;;;;;;;;5070659;28;20044;-61
2022/04/04 06:15:21;;;;;;;4.43;4.03;;;;;;;;;;5074752;28;20028;-60
2022/04/04 06:17:47;;;;;;;5.18;4.65;;;;;;;;;;5077799;28;20047;-54
2022/04/04 06:20:13;;;;;;;4.40;4.00;;;;;;;;;;5078805;28;20043;-53
2022/04/04 06:22:41;;;;;;;4.30;3.90;;;;;;;;;;5082382;28;20031;-61
2022/04/04 06:25:12;;;;;;;4.32;3.92;;;;;;;;;;5080091;28;20114;-60
2022/04/04 06:27:39;;;;;;;5.13;4.03;;;;;;;;;;5079996;28;20033;-61
2022/04/04 06:30:06;;;;;;;5.13;4.18;;;;;;;;;;5082164;28;20035;-52
2022/04/04 06:32:33;;;;;;;4.53;4.13;;;;;;;;;;5079063;28;20119;-61
2022/04/04 06:34:59;;;;;;;3.40;3.10;;;;;;;;;;5081088;28;20032;-52
2022/04/04 06:37:24;;;;;;;4.72;4.32;;;;;;;;;;5080705;28;20500;-62
2022/04/04 06:39:50;;;;;;;3.80;3.45;;;;;;;;;;5076751;28;20079;-61
2022/04/04 06:42:15;;;;;;;3.92;3.53;;;;;;;;;;5081323;28;20314;-53
2022/04/04 06:44:42;;;;;;;4.35;3.95;;;;;;;;;;5079926;28;20040;-61
2022/04/04 06:47:08;;;;;;;3.97;3.67;;;;;;;;;;5076694;28;20036;-61
2022/04/04 06:49:33;;;;;;;4.25;3.85;;;;;;;;;;5074324;28;20469;-56
2022/04/04 06:51:59;;;;;;;6.00;4.93;;;;;;;;;;5079509;28;20043;-62
2022/04/04 06:54:24;;;;;;;5.00;4.10;;;;;;;;;;5080175;28;20033;-61
2022/04/04 06:56:49;;;;;;;3.95;3.60;;;;;;;;;;5075652;28;20033;-50
2022/04/04 06:59:19;;;;;;;4.75;4.32;;;;;;;;;;5077441;28;20047;-52
2022/04/04 07:01:44;;;;;;;5.07;4.38;;;;;;;;;;5076355;28;20097;-61
2022/04/04 07:04:10;;;;;;;4.65;4.22;;;;;;;;;;5078889;28;20412;-61
2022/04/04 07:06:36;;;;;;;5.55;5.05;;;;;;;;;;5079116;28;20071;-52
2022/04/04 07:09:02;;;;;;;5.03;4.20;;;;;;;;;;5078774;28;20150;-52
2022/04/04 07:11:29;;;;;;;4.65;4.25;;;;;;;;;;5077638;28;20034;-51
2022/04/04 07:13:55;;;;;;;6.35;5.32;;;;;;;;;;5074018;28;20177;-51
2022/04/04 07:16:20;;;;;;;4.93;4.53;;;;;;;;;;5078234;28;20041;-52
2022/04/04 07:18:47;;;;;;;4.70;4.30;;;;;;;;;;5078408;28;20031;-62
2022/04/04 07:21:12;;;;;;;4.90;4.50;;;;;;;;;;5076972;28;20043;-61
2022/04/04 07:23:37;;;;;;;5.78;5.20;;;;;;;;;;5075772;28;20028;-61
2022/04/04 07:26:03;;;;;;;5.00;4.50;;;;;;;;;;5077631;28;20028;-51
2022/04/04 07:28:28;;;;;;;5.47;4.30;;;;;;;;;;5080281;28;20020;-49
2022/04/04 07:30:55;;;;;;;6.57;5.97;;;;;;;;;;5078095;28;20020;-53
2022/04/04 07:33:20;;;;;;;5.07;4.65;;;;;;;;;;5072575;28;20097;-51
2022/04/04 07:35:46;;;;;;;5.97;5.28;;;;;;;;;;5072911;28;20373;-49
2022/04/04 07:38:12;;;;;;;6.07;4.95;;;;;;;;;;5075973;28;20051;-53
2022/04/04 07:40:38;;;;;;;5.18;4.68;;;;;;;;;;5075129;28;20043;-49
2022/04/04 07:43:04;;;;;;;4.53;4.13;;;;;;;;;;5078196;28;20381;-49
2022/04/04 07:45:30;;;;;;;6.18;4.90;;;;;;;;;;5075920;28;20040;-61
2022/04/04 07:47:57;;;;;;;4.60;4.20;;;;;;;;;;5073022;28;20032;-62
2022/04/04 07:50:23;;;;;;;7.10;6.07;;;;;;;;;;5063818;28;20025;-61
2022/04/04 07:52:49;;;;;;;4.57;4.18;;;;;;;;;;5076325;28;20473;-62
2022/04/04 07:55:15;;;;;;;5.55;4.55;;;;;;;;;;5071218;28;20032;-62
2022/04/04 07:57:41;;;;;;;5.28;4.78;;;;;;;;;;5074206;28;20058;-62
2022/04/04 08:00:08;;;;;;;5.18;4.68;;;;;;;;;;5075730;28;20036;-62
2022/04/04 08:02:34;;;;;;;5.97;5.47;;;;;;;;;;5072693;28;20032;-52
2022/04/04 08:05:00;;;;;;;5.80;5.28;;;;;;;;;;5076453;28;20334;-49
2022/04/04 08:07:25;;;;;;;5.82;5.32;;;;;;;;;;5075286;28;20107;-62
2022/04/04 08:09:51;;;;;;;5.00;4.55;;;;;;;;;;5072962;28;20032;-62
2022/04/04 08:12:16;;;;;;;7.18;5.57;;;;;;;;;;5073406;28;20123;-61
2022/04/04 08:14:42;;;;;;;4.50;4.10;;;;;;;;;;5074707;28;20460;-54
2022/04/04 08:17:08;;;;;;;5.60;4.97;;;;;;;;;;5079692;28;20369;-51
2022/04/04 08:19:35;;;;;;;5.40;4.95;;;;;;;;;;5077431;28;20068;-50
2022/04/04 08:22:00;;;;;;;6.03;5.53;;;;;;;;;;5075789;28;20032;-62
2022/04/04 08:24:26;;;;;;;5.43;4.95;;;;;;;;;;5077696;28;20047;-62
2022/04/04 08:26:51;;;;;;;5.18;4.72;;;;;;;;;;5079164;28;20043;-49
2022/04/04 08:29:17;;;;;;;5.43;4.93;;;;;;;;;;5078016;28;20370;-53
2022/04/04 08:31:42;;;;;;;5.13;4.72;;;;;;;;;;5074016;28;20047;-62
2022/04/04 08:34:08;;;;;;;6.22;5.55;;;;;;;;;;5076607;28;20454;-61
2022/04/04 08:36:34;;;;;;;8.65;5.75;;;;;;;;;;5080608;28;20138;-53
2022/04/04 08:39:00;;;;;;;5.20;4.80;;;;;;;;;;5074790;28;20025;-62
2022/04/04 08:41:30;;;;;;;8.75;6.55;;;;;;;;;;5072620;28;20093;-61
2022/04/04 08:43:58;;;;;;;5.45;4.40;;;;;;;;;;5074998;28;20042;-61
2022/04/04 08:46:23;;;;;;;7.40;5.90;;;;;;;;;;5074166;28;20024;-61
2022/04/04 08:48:49;;;;;;;4.97;4.57;;;;;;;;;;5074158;28;20668;-61
2022/04/04 08:51:15;;;;;;;6.13;5.63;;;;;;;;;;5073272;28;20456;-51
2022/04/04 08:53:40;;;;;;;6.13;5.60;;;;;;;;;;5075022;28;20039;-51
2022/04/04 08:56:08;;;;;;;6.00;5.50;;;;;;;;;;5073582;28;20097;-62
2022/04/04 08:58:33;;;;;;;5.88;5.38;;;;;;;;;;5073116;28;20047;-62
2022/04/04 09:01:00;;;;;;;5.47;4.93;;;;;;;;;;5074421;28;20486;-62
2022/04/04 09:03:35;;;;;;;5.30;4.80;;;;;;;;;;5075808;28;20457;-61
2022/04/04 09:06:05;;;;;;;5.85;5.35;;;;;;;;;;5074331;28;20033;-53
2022/04/04 09:08:44;;;;;;;5.00;4.60;;;;;;;;;;5075564;28;20031;-53
2022/04/04 09:11:10;;;;;;;5.30;4.80;;;;;;;;;;5075722;28;20029;-50
2022/04/04 09:13:35;;;;;;;5.78;5.28;;;;;;;;;;5075382;28;20106;-62
2022/04/04 09:16:05;;;;;;;5.45;5.05;;;;;;;;;;5073526;28;20119;-53
2022/04/04 09:18:36;;;;;;;5.43;5.03;;;;;;;;;;5074682;28;20621;-50
2022/04/04 09:21:03;;;;;;;;;;;;;;;;;;5073725;28;20041;-54
2022/04/04 09:23:54;;;;;;;5.50;5.10;;;;;;;;;;5074916;28;19956;-52
2022/04/04 09:26:46;;;;;;;;;;;;;;;;;;5073059;28;20052;-61
2022/04/04 09:29:16;;;;;;;;;;;;;;;;;;5073438;28;19951;-55
2022/04/04 09:31:52;;;;;;;5.10;4.70;;;;;;;;;;5070652;28;20010;-61
2022/04/04 09:34:17;;;;;;;11.18;4.97;;;;;;;;;;5076182;28;20370;-62
2022/04/04 09:36:47;;;;;;;6.28;5.78;;;;;;;;;;5072577;28;20058;-62
2022/04/04 09:39:14;;;;;;;4.88;4.47;;;;;;;;;;5072923;28;20453;-63
2022/04/04 09:41:40;;;;;;;5.50;5.00;;;;;;;;;;5074870;28;20417;-54
2022/04/04 09:44:06;;;;;;;4.93;4.53;;;;;;;;;;5074705;28;20108;-51
2022/04/04 09:46:34;;;;;;;4.80;4.40;;;;;;;;;;5072910;28;20044;-54
2022/04/04 09:49:07;;;;;;;4.63;4.22;;;;;;;;;;5078532;28;20068;-62
2022/04/04 09:51:41;;;;;;;5.22;4.82;;;;;;;;;;5078132;28;20012;-61
2022/04/04 09:54:09;;;;;;;6.63;6.13;;;;;;;;;;5075282;28;20071;-51
2022/04/04 09:56:35;;;;;;;5.28;4.88;;;;;;;;;;5070990;28;20127;-52
2022/04/04 09:59:01;;;;;;;5.93;5.43;;;;;;;;;;5073392;28;20115;-53
2022/04/04 10:01:28;;;;;;;6.03;5.55;;;;;;;;;;5075550;28;20144;-54
2022/04/04 10:03:55;;;;;;;5.95;5.45;;;;;;;;;;5075561;28;20024;-52
2022/04/04 10:06:22;;;;;;;7.13;6.53;;;;;;;;;;5077307;28;20103;-53
2022/04/04 10:08:54;;;;;;;7.00;6.50;;;;;;;;;;5080091;28;20021;-54
2022/04/04 10:11:21;;;;;;;8.18;7.55;;;;;;;;;;5079665;28;20491;-51
2022/04/04 10:13:47;;;;;;;7.53;7.03;;;;;;;;;;5080366;28;20067;-62
2022/04/04 10:16:13;;;;;;;6.85;6.35;;;;;;;;;;5076346;28;20181;-62
2022/04/04 10:18:42;;;;;;;7.38;6.85;;;;;;;;;;5080856;28;20465;-62
2022/04/04 10:21:08;;;;;;;9.40;7.30;;;;;;;;;;5078227;28;20082;-62
2022/04/04 10:23:37;;;;;;;8.27;7.65;;;;;;;;;;5082289;28;20081;-62
2022/04/04 10:26:02;;;;;;;8.15;7.45;;;;;;;;;;5075038;28;20068;-62
2022/04/04 10:28:33;;;;;;;7.40;6.90;;;;;;;;;;5075127;28;20394;-63
2022/04/04 10:31:19;;;;;;;7.38;6.88;;;;;;;;;;5074162;28;20020;-64
2022/04/04 10:33:46;;;;;;;8.15;7.43;;;;;;;;;;5075653;28;20078;-64
2022/04/04 10:36:20;;;;;;;7.55;7.05;;;;;;;;;;5072983;28;20033;-64
2022/04/04 10:38:47;;;;;;;7.68;6.85;;;;;;;;;;5072257;28;20052;-63
2022/04/04 10:41:26;;;;;;;7.45;6.95;;;;;;;;;;5072396;28;20115;-64
2022/04/04 10:43:53;;;;;;;7.43;6.82;;;;;;;;;;5077203;28;20072;-63
2022/04/04 10:46:21;;;;;;;8.00;7.47;;;;;;;;;;5076287;28;20028;-63
2022/04/04 10:48:49;;;;;;;7.38;6.88;;;;;;;;;;5075354;28;20058;-63
2022/04/04 10:51:19;;;;;;;6.80;6.30;;;;;;;;;;5076637;28;20107;-62
2022/04/04 10:53:47;;;;;;;7.65;7.15;;;;;;;;;;5079341;28;20171;-62
2022/04/04 10:56:24;;;;;;;6.60;6.10;;;;;;;;;;5076958;28;20044;-63
2022/04/04 10:58:51;;;;;;;7.28;6.78;;;;;;;;;;5078976;28;20040;-63
2022/04/04 11:01:21;;;;;;;6.47;5.97;;;;;;;;;;5076276;28;20033;-62
2022/04/04 11:03:52;;;;;;;6.13;5.63;;;;;;;;;;5060792;28;20024;-62
2022/04/04 11:09:11;;;;;;;6.97;6.47;;;;;;;;;;5079497;28;20040;-61
2022/04/04 11:11:58;;;;;;;5.63;5.22;;;;;;;;;;5075666;28;20054;-61
2022/04/04 11:14:26;;;;;;;5.78;5.30;;;;;;;;;;5076508;28;20058;-61
2022/04/04 11:17:07;;;;;;;5.85;5.35;;;;;;;;;;5075808;28;20043;-62
2022/04/04 11:19:48;;;;;;;5.68;5.22;;;;;;;;;;5079253;28;20040;-61
2022/04/04 11:22:22;;;;;;;6.00;5.60;;;;;;;;;;5078568;28;20111;-62
2022/04/04 11:24:58;;;;;;;5.22;4.82;;;;;;;;;;5073684;28;20024;-62
2022/04/04 11:27:27;;;;;;;6.22;5.72;;;;;;;;;;5075831;28;20465;-62
2022/04/04 11:29:53;;;;;;;8.50;5.25;;;;;;;;;;5070772;28;20046;-62
2022/04/04 11:32:33;;;;;;;6.03;5.63;;;;;;;;;;5071567;28;20153;-62
2022/04/04 11:35:08;;;;;;;5.25;4.85;;;;;;;;;;5074846;28;20083;-62
2022/04/04 11:37:50;;;;;;;5.47;5.07;;;;;;;;;;5074740;28;20029;-62
2022/04/04 11:40:23;;;;;;;6.38;5.88;;;;;;;;;;5074852;28;20555;-62
2022/04/04 11:42:51;;;;;;;5.53;4.95;;;;;;;;;;5076735;28;20579;-63
2022/04/04 11:45:23;;;;;;;5.68;5.28;;;;;;;;;;5075030;28;20937;-62
2022/04/04 11:47:49;;;;;;;5.47;5.05;;;;;;;;;;5077671;28;20119;-52
2022/04/04 11:50:15;;;;;;;6.03;5.53;;;;;;;;;;5079628;28;20415;-51
2022/04/04 11:52:48;;;;;;;7.13;6.57;;;;;;;;;;5078695;28;20118;-63
2022/04/04 11:55:33;;;;;;;6.30;5.80;;;;;;;;;;5076732;28;20035;-53
2022/04/04 11:58:00;;;;;;;8.68;6.60;;;;;;;;;;5076188;28;20032;-63
2022/04/04 12:00:32;;;;;;;6.32;5.82;;;;;;;;;;5075617;28;20040;-62
2022/04/04 12:03:12;;;;;;;8.50;7.90;;;;;;;;;;5075385;28;20039;-62
2022/04/04 12:05:44;;;;;;;5.67;5.17;;;;;;;;;;5076204;28;20036;-62
2022/04/04 12:08:11;;;;;;;5.80;5.40;;;;;;;;;;5073791;28;20271;-63
2022/04/04 12:10:37;;;;;;;5.68;5.28;;;;;;;;;;5074398;28;20016;-63
2022/04/04 12:13:09;;;;;;;6.18;5.68;;;;;;;;;;5075270;28;20027;-62
2022/04/04 12:15:42;;;;;;;6.47;5.97;;;;;;;;;;5075589;28;20020;-62
2022/04/04 12:18:08;;;;;;;6.45;5.95;;;;;;;;;;5057070;28;20556;-62
2022/04/04 12:20:42;;;;;;;5.50;5.00;;;;;;;;;;5075717;28;20032;-63
2022/04/04 12:25:56;;;;;;;5.35;4.95;;;;;;;;;;5070447;28;20060;-62
2022/04/04 12:28:30;;;;;;;5.72;5.32;;;;;;;;;;5081978;28;20028;-63
2022/04/04 12:30:57;;;;;;;6.35;5.85;;;;;;;;;;5074315;28;20050;-62
2022/04/04 12:33:30;;;;;;;5.80;5.40;;;;;;;;;;5075130;28;20043;-62
2022/04/04 12:35:56;;;;;;;5.72;5.32;;;;;;;;;;5074434;28;20400;-62
2022/04/04 12:38:27;;;;;;;6.20;5.70;;;;;;;;;;5073952;28;20046;-63
2022/04/04 12:41:11;;;;;;;5.70;5.30;;;;;;;;;;5077565;28;20048;-50
2022/04/04 12:43:38;;;;;;;6.07;5.57;;;;;;;;;;5075028;28;20161;-51
2022/04/04 12:46:06;;;;;;;5.50;5.10;;;;;;;;;;5072210;28;20032;-63
2022/04/04 12:48:40;;;;;;;5.93;5.53;;;;;;;;;;5077260;28;20032;-52
2022/04/04 12:51:23;;;;;;;5.80;5.40;;;;;;;;;;5075021;28;20028;-63
2022/04/04 12:53:49;;;;;;;34.67;6.75;;;;;;;;;;5077164;28;20032;-63
2022/04/04 12:56:15;;;;;;;4.93;4.53;;;;;;;;;;5078260;28;20028;-61
2022/04/04 12:58:41;;;;;;;5.55;5.15;;;;;;;;;;5075188;28;20446;-53
2022/04/04 13:01:15;;;;;;;6.05;5.60;;;;;;;;;;5072886;28;20046;-53
2022/04/04 13:03:52;;;;;;;5.88;5.38;;;;;;;;;;5074258;28;20106;-52
2022/04/04 13:06:19;;;;;;;6.03;5.63;;;;;;;;;;5075630;28;20071;-55
2022/04/04 13:09:02;;;;;;;5.40;5.00;;;;;;;;;;5075745;28;20029;-52
2022/04/04 13:11:29;;;;;;;5.05;4.65;;;;;;;;;;5073519;28;20020;-51
2022/04/04 13:14:05;;;;;;;5.50;5.10;;;;;;;;;;5074110;28;20028;-54
2022/04/04 13:16:32;;;;;;;5.25;4.85;;;;;;;;;;5071381;28;20454;-53
2022/04/04 13:18:59;;;;;;;6.03;5.63;;;;;;;;;;5075669;28;20040;-52
2022/04/04 13:21:24;;;;;;;6.75;5.95;;;;;;;;;;5076870;28;20024;-52
2022/04/04 13:23:50;;;;;;;5.68;5.28;;;;;;;;;;5075044;28;20070;-54
2022/04/04 13:26:15;;;;;;;5.90;5.43;;;;;;;;;;5072746;28;20045;-52
2022/04/04 13:28:41;;;;;;;5.30;4.90;;;;;;;;;;5081639;28;20028;-51
2022/04/04 13:31:06;;;;;;;5.88;5.47;;;;;;;;;;5076391;28;20044;-53
2022/04/04 13:33:31;;;;;;;6.55;6.05;;;;;;;;;;5073157;28;20143;-62
2022/04/04 13:35:57;;;;;;;5.50;5.07;;;;;;;;;;5078253;28;20036;-63
2022/04/04 13:38:23;;;;;;;5.40;5.00;;;;;;;;;;5074889;28;20099;-51
2022/04/04 13:40:48;;;;;;;5.22;4.82;;;;;;;;;;5074703;28;20090;-65
2022/04/04 13:43:14;;;;;;;7.18;6.57;;;;;;;;;;5074026;28;20032;-61
2022/04/04 13:45:40;;;;;;;5.40;5.00;;;;;;;;;;5077943;28;20036;-62
2022/04/04 13:48:06;;;;;;;5.28;4.88;;;;;;;;;;5077130;28;20040;-63
2022/04/04 13:50:31;;;;;;;5.97;5.53;;;;;;;;;;5078680;28;20510;-61
2022/04/04 13:52:57;;;;;;;6.45;5.78;;;;;;;;;;5079042;28;20025;-60
2022/04/04 13:55:22;;;;;;;5.57;5.18;;;;;;;;;;5079033;28;20032;-53
2022/04/04 13:57:48;;;;;;;5.88;5.38;;;;;;;;;;5080775;28;20111;-53
2022/04/04 14:00:14;;;;;;;6.50;6.00;;;;;;;;;;5074746;28;20029;-56
2022/04/04 14:02:43;;;;;;;6.30;5.80;;;;;;;;;;5079333;28;20531;-59
2022/04/04 14:05:11;;;;;;;6.57;6.07;;;;;;;;;;5078481;28;20465;-53
2022/04/04 14:07:38;;;;;;;14.43;5.45;;;;;;;;;;5077963;28;20036;-49
2022/04/04 14:10:04;;;;;;;6.72;6.22;;;;;;;;;;5079303;28;20032;-51
2022/04/04 14:12:29;;;;;;;5.75;5.35;;;;;;;;;;5077123;28;20038;-48
2022/04/04 14:14:55;;;;;;;6.55;6.05;;;;;;;;;;5073503;28;20024;-49
2022/04/04 14:17:21;;;;;;;6.28;5.78;;;;;;;;;;5073869;28;20060;-52
2022/04/04 14:19:47;;;;;;;5.97;5.57;;;;;;;;;;5077458;28;20035;-60
2022/04/04 14:22:13;;;;;;;6.45;5.95;;;;;;;;;;5078954;28;20028;-60
2022/04/04 14:24:40;;;;;;;6.43;5.93;;;;;;;;;;5078662;28;20047;-61
2022/04/04 14:27:05;;;;;;;5.97;5.57;;;;;;;;;;5079222;28;20049;-61
2022/04/04 14:29:32;;;;;;;5.85;5.45;;;;;;;;;;5074761;28;20028;-61
2022/04/04 14:31:58;;;;;;;6.25;5.75;;;;;;;;;;5078109;28;20028;-60
2022/04/04 14:34:23;;;;;;;5.35;4.95;;;;;;;;;;5076900;28;20377;-60
2022/04/04 14:36:49;;;;;;;5.55;5.15;;;;;;;;;;5080361;28;20068;-61
2022/04/04 14:39:14;;;;;;;6.07;5.57;;;;;;;;;;5073124;28;20024;-61
2022/04/04 14:41:40;;;;;;;5.00;4.60;;;;;;;;;;5083039;28;20127;-60
2022/04/04 14:44:06;;;;;;;5.05;4.65;;;;;;;;;;5077927;28;20082;-60
2022/04/04 14:46:32;;;;;;;4.72;4.28;;;;;;;;;;5075059;28;20061;-60
2022/04/04 14:48:58;;;;;;;6.72;5.57;;;;;;;;;;5077894;28;20067;-60
2022/04/04 14:51:24;;;;;;;4.80;4.40;;;;;;;;;;5078429;28;20047;-60
2022/04/04 14:53:50;;;;;;;5.93;5.43;;;;;;;;;;5080132;28;20020;-59